Terminal Aerodrome Forecast
Issued by NWS

Home | Current Version | Previous Version | Text Only | Print | Product List | Glossary On
Versions: 1 2 3 4 5 6 7 8 9 10 11 12 13 14 15
851
FTUS43 KMPX 241737
TAFAXN
TAF
KAXN 241737Z 2418/2518 15010KT P6SM FEW025
     FM241900 16014G18KT P6SM SCT250
     FM250400 16012KT P6SM VCTS BKN050CB OVC100
     FM250900 16014KT P6SM SCT050 OVC100
     FM251500 18015G22KT P6SM SCT020 OVC050=

USA.gov is the U.S. government's official web portal to all federal, state and local government web resources and services.